createdAt,value
2023-04-08T00:01:02.014Z,99045.06
2023-04-08T00:03:29.632Z,99049.38
2023-04-08T00:05:56.591Z,99048.50
2023-04-08T00:08:23.388Z,99051.00
2023-04-08T00:10:50.366Z,99049.91
2023-04-08T00:13:17.332Z,99052.69
2023-04-08T00:15:44.200Z,99053.22
2023-04-08T00:18:11.504Z,99053.75
2023-04-08T00:20:38.643Z,99055.31
2023-04-08T00:23:05.539Z,99051.75
2023-04-08T00:25:32.286Z,99055.78
2023-04-08T00:27:59.113Z,99058.50
2023-04-08T00:30:27.309Z,99059.06
2023-04-08T00:32:55.296Z,99055.84
2023-04-08T00:35:22.314Z,99056.34
2023-04-08T00:37:49.754Z,99052.59
2023-04-08T00:40:16.675Z,99052.66
2023-04-08T00:42:43.609Z,99054.22
2023-04-08T00:45:11.434Z,99053.97
2023-04-08T00:47:38.721Z,99061.31
2023-04-08T00:50:10.564Z,99061.81
2023-04-08T00:52:37.314Z,99060.16
2023-04-08T00:55:05.748Z,99060.94
2023-04-08T00:57:33.023Z,99062.88
2023-04-08T01:00:00.378Z,99064.75
2023-04-08T01:02:43.223Z,99061.03
2023-04-08T01:05:54.795Z,99062.97
2023-04-08T01:08:28.132Z,99065.16
2023-04-08T01:11:02.133Z,99069.47
2023-04-08T01:13:37.546Z,99066.19
2023-04-08T01:16:05.225Z,99064.81
2023-04-08T01:18:36.472Z,99069.94
2023-04-08T01:21:06.540Z,99071.03
2023-04-08T01:23:47.652Z,99070.78
2023-04-08T01:26:24.494Z,99070.22
2023-04-08T01:28:56.424Z,99071.59
2023-04-08T01:31:25.851Z,99066.19
2023-04-08T01:33:54.614Z,99071.09
2023-04-08T01:36:24.617Z,99073.78
2023-04-08T01:38:51.973Z,99071.66
2023-04-08T01:41:21.392Z,99075.41
2023-04-08T01:43:50.580Z,99070.56
2023-04-08T01:46:19.047Z,99070.00
2023-04-08T01:48:48.618Z,99068.38
2023-04-08T01:51:16.994Z,99063.53
2023-04-08T01:53:44.510Z,99062.13
2023-04-08T01:56:15.634Z,99057.81
2023-04-08T01:58:49.379Z,99069.72
2023-04-08T02:01:21.010Z,99066.50
2023-04-08T02:03:52.190Z,99061.88
2023-04-08T02:06:19.307Z,99056.47
2023-04-08T02:08:46.512Z,99054.59
2023-04-08T02:11:13.384Z,99059.44
2023-04-08T02:13:40.634Z,99058.97
2023-04-08T02:16:24.462Z,99061.66
2023-04-08T02:19:02.528Z,99063.84
2023-04-08T02:21:43.751Z,99055.75
2023-04-08T02:24:15.426Z,99056.59
2023-04-08T02:26:44.664Z,99061.97
2023-04-08T02:29:17.166Z,99058.22
2023-04-08T02:31:47.053Z,99055.25
2023-04-08T02:34:15.955Z,99049.31
2023-04-08T02:36:48.861Z,99048.75
2023-04-08T02:39:16.058Z,99057.09
2023-04-08T02:41:42.876Z,99058.75
2023-04-08T02:44:10.501Z,99050.41
2023-04-08T02:46:37.382Z,99059.88
2023-04-08T02:49:04.379Z,99058.81
2023-04-08T02:51:32.193Z,99059.09
2023-04-08T02:53:59.012Z,99056.41
2023-04-08T02:56:26.005Z,99064.25
2023-04-08T02:58:52.755Z,99062.63
2023-04-08T03:01:19.624Z,99061.53
2023-04-08T03:03:46.660Z,99056.41
2023-04-08T03:06:13.630Z,99056.16
2023-04-08T03:08:40.396Z,99051.53
2023-04-08T03:11:07.243Z,99056.41
2023-04-08T03:13:35.497Z,99054.59
2023-04-08T03:16:02.337Z,99054.03
2023-04-08T03:18:29.118Z,99061.03
2023-04-08T03:20:55.921Z,99060.47
2023-04-08T03:23:22.763Z,99063.72
2023-04-08T03:25:49.646Z,99063.19
2023-04-08T03:28:16.363Z,99061.56
2023-04-08T03:30:43.374Z,99068.84
2023-04-08T03:33:10.386Z,99066.94
2023-04-08T03:35:38.753Z,99068.03
2023-04-08T03:38:06.156Z,99065.66
2023-04-08T03:40:33.000Z,99071.81
2023-04-08T03:42:59.813Z,99074.25
2023-04-08T03:45:26.692Z,99079.94
2023-04-08T03:47:54.305Z,99072.41
2023-04-08T03:50:21.275Z,99068.06
2023-04-08T03:52:48.034Z,99071.81
2023-04-08T03:55:17.264Z,99071.59
2023-04-08T03:57:45.481Z,99067.28
2023-04-08T04:00:13.283Z,99067.84
2023-04-08T04:02:40.409Z,99071.59
2023-04-08T04:05:08.997Z,99059.97
2023-04-08T04:07:35.733Z,99067.53
2023-04-08T04:10:02.588Z,99062.97
2023-04-08T04:12:29.494Z,99075.06
2023-04-08T04:14:56.255Z,99069.13
2023-04-08T04:17:23.136Z,99074.91
2023-04-08T04:19:49.999Z,99083.28
2023-04-08T04:22:16.757Z,99081.66
2023-04-08T04:24:50.576Z,99075.97
2023-04-08T04:27:17.621Z,99076.22
2023-04-08T04:29:47.344Z,99075.97
2023-04-08T04:32:14.141Z,99081.63
2023-04-08T04:34:40.968Z,99078.97
2023-04-08T04:37:07.725Z,99087.38
2023-04-08T04:39:34.534Z,99087.38
2023-04-08T04:42:01.392Z,99084.38
2023-04-08T04:44:28.213Z,99085.50
2023-04-08T04:46:55.182Z,99083.09
2023-04-08T04:49:21.998Z,99084.72
2023-04-08T04:51:49.293Z,99083.34
2023-04-08T04:54:16.100Z,99087.16
2023-04-08T04:56:42.957Z,99092.28
2023-04-08T04:59:09.858Z,99088.16
2023-04-08T05:01:37.988Z,99092.50
2023-04-08T05:04:04.906Z,99095.22
2023-04-08T05:06:31.908Z,99097.72
2023-04-08T05:08:58.864Z,99091.78
2023-04-08T05:11:26.095Z,99105.56
2023-04-08T05:13:52.935Z,99107.16
2023-04-08T05:16:19.734Z,99106.09
2023-04-08T05:18:46.595Z,99112.31
2023-04-08T05:21:13.392Z,99117.16
2023-04-08T05:23:40.264Z,99114.16
2023-04-08T05:26:08.874Z,99113.59
2023-04-08T05:28:36.196Z,99123.34
2023-04-08T05:31:03.084Z,99121.72
2023-04-08T05:33:29.897Z,99117.66
2023-04-08T05:35:56.911Z,99122.81
2023-04-08T05:38:23.834Z,99123.38
2023-04-08T05:40:51.426Z,99123.91
2023-04-08T05:43:18.616Z,99130.91
2023-04-08T05:45:45.501Z,99125.00
2023-04-08T05:48:12.405Z,99123.91
2023-04-08T05:50:39.206Z,99126.03
2023-04-08T05:53:06.084Z,99127.66
2023-04-08T05:55:33.069Z,99131.41
2023-04-08T05:57:59.883Z,99131.16
2023-04-08T06:00:27.074Z,99138.19
2023-04-08T06:02:56.087Z,99136.00
2023-04-08T06:05:23.055Z,99133.56
2023-04-08T06:07:49.786Z,99142.25
2023-04-08T06:10:17.304Z,99144.16
2023-04-08T06:12:44.188Z,99139.28
2023-04-08T06:15:11.089Z,99149.25
2023-04-08T06:17:38.899Z,99148.69
2023-04-08T06:20:07.133Z,99150.25
2023-04-08T06:22:33.896Z,99150.19
2023-04-08T06:25:00.799Z,99153.66
2023-04-08T06:27:27.648Z,99165.31
2023-04-08T06:29:55.281Z,99163.91
2023-04-08T06:32:22.550Z,99171.22
2023-04-08T06:34:49.461Z,99164.69
2023-04-08T06:37:16.441Z,99166.88
2023-04-08T06:39:44.246Z,99170.94
2023-04-08T06:42:11.265Z,99172.34
2023-04-08T06:44:40.628Z,99176.13
2023-04-08T06:47:07.544Z,99181.50
2023-04-08T06:49:34.623Z,99180.66
2023-04-08T06:52:01.856Z,99173.91
2023-04-08T06:54:29.248Z,99177.97
2023-04-08T06:56:56.128Z,99180.47
2023-04-08T06:59:22.977Z,99188.06
2023-04-08T07:01:50.058Z,99184.25
2023-04-08T07:04:17.534Z,99179.94
2023-04-08T07:06:44.360Z,99187.50
2023-04-08T07:09:11.556Z,99187.50
2023-04-08T07:11:38.714Z,99186.63
2023-04-08T07:14:05.884Z,99187.94
2023-04-08T07:16:32.892Z,99187.94
2023-04-08T07:19:00.657Z,99186.59
2023-04-08T07:21:27.715Z,99188.47
2023-04-08T07:23:54.808Z,99191.38
2023-04-08T07:26:22.124Z,99185.63
2023-04-08T07:28:49.552Z,99193.75
2023-04-08T07:31:18.723Z,99198.34
2023-04-08T07:33:46.969Z,99197.31
2023-04-08T07:36:15.395Z,99200.84
2023-04-08T07:38:42.211Z,99203.78
2023-04-08T07:41:09.178Z,99201.59
2023-04-08T07:43:37.194Z,99204.31
2023-04-08T07:46:06.129Z,99209.94
2023-04-08T07:48:34.586Z,99208.78
2023-04-08T07:51:11.465Z,99209.31
2023-04-08T07:53:42.530Z,99214.44
2023-04-08T07:56:15.092Z,99201.09
2023-04-08T07:58:42.894Z,99201.56
2023-04-08T08:01:22.517Z,99218.84
2023-04-08T08:03:51.971Z,99221.44
2023-04-08T08:06:19.604Z,99210.84
2023-04-08T08:08:46.451Z,99221.91
2023-04-08T08:11:13.837Z,99220.25
2023-04-08T08:13:40.832Z,99224.78
2023-04-08T08:16:11.155Z,99223.59
2023-04-08T08:18:39.964Z,99225.44
2023-04-08T08:21:07.734Z,99228.63
2023-04-08T08:23:34.587Z,99226.94
2023-04-08T08:26:03.917Z,99233.41
2023-04-08T08:28:30.740Z,99226.38
2023-04-08T08:30:57.941Z,99234.00
2023-04-08T08:33:25.891Z,99236.41
2023-04-08T08:35:52.778Z,99234.53
2023-04-08T08:38:19.727Z,99233.41
2023-04-08T08:40:46.674Z,99233.94
2023-04-08T08:43:14.538Z,99235.47
2023-04-08T08:45:43.845Z,99236.13
2023-04-08T08:48:10.765Z,99242.31
2023-04-08T08:50:38.165Z,99237.63
2023-04-08T08:53:05.791Z,99239.47
2023-04-08T08:56:00.328Z,99250.13
2023-04-08T08:58:28.011Z,99250.53
2023-04-08T09:00:55.403Z,99257.13
2023-04-08T09:03:28.409Z,99253.94
2023-04-08T09:06:02.244Z,99259.78
2023-04-08T09:08:34.229Z,99249.09
2023-04-08T09:11:19.394Z,99252.84
2023-04-08T09:13:47.621Z,99258.19
2023-04-08T09:16:20.565Z,99256.25
2023-04-08T09:18:49.325Z,99256.19
2023-04-08T09:21:18.198Z,99258.63
2023-04-08T09:23:51.700Z,99258.69
2023-04-08T09:26:24.796Z,99260.81
2023-04-08T09:29:14.383Z,99255.69
2023-04-08T09:32:00.193Z,99251.38
2023-04-08T09:34:29.671Z,99256.09
2023-04-08T09:36:58.434Z,99261.56
2023-04-08T09:39:25.279Z,99256.59
2023-04-08T09:41:53.026Z,99261.03
2023-04-08T09:44:21.947Z,99262.03
2023-04-08T09:47:20.088Z,99261.59
2023-04-08T09:49:56.370Z,99259.56
2023-04-08T09:52:55.108Z,99263.19
2023-04-08T09:55:24.175Z,99261.06
2023-04-08T09:58:11.303Z,99263.19
2023-04-08T10:00:50.372Z,99258.34
2023-04-08T10:03:37.268Z,99264.88
2023-04-08T10:06:06.314Z,99267.22
2023-04-08T10:08:33.619Z,99272.16
2023-04-08T10:11:00.548Z,99265.91
2023-04-08T10:13:28.620Z,99268.72
2023-04-08T10:16:22.717Z,99270.22
2023-04-08T10:18:55.665Z,99266.22
2023-04-08T10:21:32.322Z,99269.44
2023-04-08T10:24:05.890Z,99257.69
2023-04-08T10:26:44.047Z,99254.25
2023-04-08T10:29:28.907Z,99257.34
2023-04-08T10:31:57.498Z,99250.25
2023-04-08T10:34:26.790Z,99255.38
2023-04-08T10:36:56.722Z,99249.63
2023-04-08T10:39:25.531Z,99256.63
2023-04-08T10:41:52.556Z,99248.44
2023-04-08T10:44:26.144Z,99251.84
2023-04-08T10:46:54.647Z,99255.00
2023-04-08T10:49:22.519Z,99252.72
2023-04-08T10:51:49.641Z,99260.09
2023-04-08T10:54:18.679Z,99254.25
2023-04-08T10:56:51.371Z,99256.81
2023-04-08T10:59:32.864Z,99254.97
2023-04-08T11:02:01.437Z,99247.63
2023-04-08T11:04:28.864Z,99253.75
2023-04-08T11:06:56.018Z,99250.75
2023-04-08T11:09:22.930Z,99252.66
2023-04-08T11:11:50.397Z,99252.53
2023-04-08T11:14:21.729Z,99252.53
2023-04-08T11:16:49.012Z,99257.47
2023-04-08T11:19:16.106Z,99256.19
2023-04-08T11:21:43.496Z,99253.38
2023-04-08T11:24:12.283Z,99251.66
2023-04-08T11:26:41.628Z,99250.88
2023-04-08T11:29:14.878Z,99255.69
2023-04-08T11:31:43.861Z,99251.25
2023-04-08T11:34:11.057Z,99253.88
2023-04-08T11:36:41.596Z,99247.22
2023-04-08T11:39:12.585Z,99252.16
2023-04-08T11:41:43.003Z,99252.06
2023-04-08T11:44:11.437Z,99255.25
2023-04-08T11:46:40.145Z,99246.25
2023-04-08T11:49:08.925Z,99254.44
2023-04-08T11:51:54.946Z,99253.25
2023-04-08T11:54:33.113Z,99250.94
2023-04-08T11:57:00.837Z,99242.56
2023-04-08T11:59:29.814Z,99246.91
2023-04-08T12:01:57.424Z,99248.31
2023-04-08T12:04:24.872Z,99245.47
2023-04-08T12:06:52.348Z,99246.47
2023-04-08T12:09:19.314Z,99248.06
2023-04-08T12:11:46.677Z,99249.69
2023-04-08T12:14:14.622Z,99243.22
2023-04-08T12:16:41.740Z,99241.13
2023-04-08T12:19:08.676Z,99242.63
2023-04-08T12:21:36.059Z,99242.84
2023-04-08T12:24:03.123Z,99244.38
2023-04-08T12:26:29.957Z,99250.03
2023-04-08T12:28:56.726Z,99249.25
2023-04-08T12:31:23.745Z,99254.56
2023-04-08T12:33:50.802Z,99259.41
2023-04-08T12:36:18.073Z,99255.25
2023-04-08T12:38:44.916Z,99258.38
2023-04-08T12:41:11.693Z,99253.44
2023-04-08T12:43:39.334Z,99257.28
2023-04-08T12:46:06.341Z,99252.25
2023-04-08T12:48:33.237Z,99248.22
2023-04-08T12:51:00.233Z,99252.75
2023-04-08T12:53:27.001Z,99251.94
2023-04-08T12:55:57.169Z,99245.69
2023-04-08T12:58:25.559Z,99248.72
2023-04-08T13:00:52.426Z,99255.75
2023-04-08T13:03:19.370Z,99255.97
2023-04-08T13:05:46.248Z,99249.72
2023-04-08T13:08:13.242Z,99248.38
2023-04-08T13:10:41.998Z,99252.31
2023-04-08T13:13:08.861Z,99251.09
2023-04-08T13:15:35.643Z,99249.00
2023-04-08T13:18:02.566Z,99244.91
2023-04-08T13:20:29.740Z,99240.06
2023-04-08T13:22:57.076Z,99243.41
2023-04-08T13:25:24.213Z,99248.41
2023-04-08T13:27:50.992Z,99250.53
2023-04-08T13:30:18.111Z,99249.97
2023-04-08T13:32:45.240Z,99243.72
2023-04-08T13:35:12.072Z,99247.94
2023-04-08T13:37:38.909Z,99239.41
2023-04-08T13:40:08.622Z,99246.84
2023-04-08T13:42:35.753Z,99247.34
2023-04-08T13:45:02.628Z,99241.25
2023-04-08T13:47:29.439Z,99241.88
2023-04-08T13:49:56.442Z,99237.53
2023-04-08T13:52:23.394Z,99235.78
2023-04-08T13:54:50.184Z,99240.47
2023-04-08T13:57:16.936Z,99241.38
2023-04-08T13:59:44.763Z,99233.53
2023-04-08T14:02:12.900Z,99239.41
2023-04-08T14:04:40.422Z,99239.06
2023-04-08T14:07:07.474Z,99227.66
2023-04-08T14:09:35.729Z,99227.88
2023-04-08T14:12:02.825Z,99230.13
2023-04-08T14:14:29.809Z,99238.66
2023-04-08T14:16:57.068Z,99247.88
2023-04-08T14:19:24.848Z,99232.38
2023-04-08T14:21:51.601Z,99236.53
2023-04-08T14:24:18.511Z,99231.88
2023-04-08T14:26:45.346Z,99239.78
2023-04-08T14:29:12.290Z,99227.38
2023-04-08T14:31:39.259Z,99234.16
2023-04-08T14:34:06.120Z,99241.41
2023-04-08T14:36:33.023Z,99229.00
2023-04-08T14:39:00.430Z,99236.88
2023-04-08T14:41:27.433Z,99232.56
2023-04-08T14:43:54.394Z,99236.72
2023-04-08T14:46:21.780Z,99240.47
2023-04-08T14:48:49.046Z,99239.22
2023-04-08T14:51:16.120Z,99234.63
2023-04-08T14:53:42.944Z,99239.63
2023-04-08T14:56:10.155Z,99234.47
2023-04-08T14:58:37.373Z,99241.84
2023-04-08T15:01:04.766Z,99238.38
2023-04-08T15:03:31.761Z,99239.78
2023-04-08T15:05:59.792Z,99230.72
2023-04-08T15:08:27.104Z,99240.09
2023-04-08T15:10:54.100Z,99241.88
2023-04-08T15:13:20.996Z,99244.50
2023-04-08T15:15:47.851Z,99247.47
2023-04-08T15:18:14.840Z,99249.91
2023-04-08T15:20:41.871Z,99245.91
2023-04-08T15:23:08.769Z,99247.31
2023-04-08T15:25:35.662Z,99250.50
2023-04-08T15:28:02.652Z,99249.50
2023-04-08T15:30:35.017Z,99250.41
2023-04-08T15:33:05.631Z,99242.97
2023-04-08T15:35:33.059Z,99249.66
2023-04-08T15:38:00.826Z,99253.31
2023-04-08T15:40:28.152Z,99242.50
2023-04-08T15:42:55.924Z,99250.69
2023-04-08T15:45:23.011Z,99248.56
2023-04-08T15:47:50.119Z,99250.59
2023-04-08T15:50:17.362Z,99257.56
2023-04-08T15:52:44.756Z,99255.75
2023-04-08T15:55:11.719Z,99259.88
2023-04-08T15:57:38.853Z,99255.25
2023-04-08T16:00:13.888Z,99265.84
2023-04-08T16:02:42.249Z,99267.44
2023-04-08T16:05:14.274Z,99273.31
2023-04-08T16:07:42.138Z,99267.97
2023-04-08T16:10:09.106Z,99271.81
2023-04-08T16:12:35.894Z,99274.81
2023-04-08T16:15:02.848Z,99277.66
2023-04-08T16:17:29.733Z,99276.53
2023-04-08T16:22:24.188Z,99274.03
2023-04-08T16:24:53.023Z,99277.97
2023-04-08T16:27:19.894Z,99272.53
2023-04-08T16:29:47.245Z,99279.09
2023-04-08T16:32:14.179Z,99276.97
2023-04-08T16:34:41.061Z,99278.47
2023-04-08T16:37:07.877Z,99274.75
2023-04-08T16:39:34.967Z,99286.22
2023-04-08T16:42:01.849Z,99281.41
2023-04-08T16:44:28.774Z,99281.09
2023-04-08T16:46:55.793Z,99289.34
2023-04-08T16:49:22.632Z,99287.41
2023-04-08T16:51:49.480Z,99289.63
2023-04-08T16:54:16.444Z,99290.75
2023-04-08T16:56:45.781Z,99298.41
2023-04-08T16:59:13.671Z,99290.22
2023-04-08T17:01:41.187Z,99302.72
2023-04-08T17:04:08.241Z,99299.91
2023-04-08T17:06:36.232Z,99300.28
2023-04-08T17:09:03.927Z,99311.47
2023-04-08T17:11:31.158Z,99306.31
2023-04-08T17:13:58.030Z,99308.25
2023-04-08T17:16:26.417Z,99311.75
2023-04-08T17:18:53.430Z,99324.06
2023-04-08T17:21:23.454Z,99323.47
2023-04-08T17:23:52.536Z,99322.66
2023-04-08T17:26:20.247Z,99322.13
2023-04-08T17:28:47.138Z,99319.81
2023-04-08T17:31:13.882Z,99330.47
2023-04-08T17:33:43.549Z,99325.84
2023-04-08T17:36:10.661Z,99331.88
2023-04-08T17:38:39.820Z,99341.81
2023-04-08T17:41:08.111Z,99340.06
2023-04-08T17:43:35.039Z,99334.75
2023-04-08T17:46:02.183Z,99340.19
2023-04-08T17:48:29.137Z,99339.59
2023-04-08T17:51:04.146Z,99344.75
2023-04-08T17:53:32.697Z,99337.97
2023-04-08T17:56:00.696Z,99350.75
2023-04-08T17:58:27.832Z,99349.72
2023-04-08T18:00:54.662Z,99353.41
2023-04-08T18:03:21.976Z,99351.34
2023-04-08T18:05:48.907Z,99360.59
2023-04-08T18:08:16.154Z,99361.72
2023-04-08T18:10:43.537Z,99359.28
2023-04-08T18:13:11.901Z,99362.94
2023-04-08T18:15:39.492Z,99364.03
2023-04-08T18:18:06.409Z,99358.38
2023-04-08T18:20:37.134Z,99365.81
2023-04-08T18:23:04.350Z,99375.13
2023-04-08T18:25:32.358Z,99369.75
2023-04-08T18:27:59.411Z,99379.84
2023-04-08T18:30:26.438Z,99378.28
2023-04-08T18:32:53.418Z,99384.22
2023-04-08T18:35:20.424Z,99383.66
2023-04-08T18:37:47.536Z,99381.78
2023-04-08T18:40:15.320Z,99390.25
2023-04-08T18:42:42.228Z,99392.97
2023-04-08T18:45:09.728Z,99391.88
2023-04-08T18:47:38.524Z,99395.69
2023-04-08T18:50:07.690Z,99388.09
2023-04-08T18:52:34.878Z,99397.34
2023-04-08T18:55:02.594Z,99398.78
2023-04-08T18:57:29.738Z,99396.94
2023-04-08T18:59:56.576Z,99398.56
2023-04-08T19:02:23.480Z,99404.56
2023-04-08T19:04:50.334Z,99413.81
2023-04-08T19:07:17.725Z,99413.81
2023-04-08T19:09:51.915Z,99422.56
2023-04-08T19:12:18.749Z,99418.25
2023-04-08T19:14:45.602Z,99423.38
2023-04-08T19:17:12.493Z,99425.00
2023-04-08T19:19:39.513Z,99438.03
2023-04-08T19:22:06.307Z,99441.31
2023-04-08T19:24:33.823Z,99440.53
2023-04-08T19:27:00.946Z,99439.94
2023-04-08T19:29:29.704Z,99440.22
2023-04-08T19:31:59.059Z,99439.19
2023-04-08T19:34:27.020Z,99437.81
2023-04-08T19:36:54.175Z,99447.63
2023-04-08T19:39:21.073Z,99441.41
2023-04-08T19:41:48.484Z,99447.16
2023-04-08T19:44:15.598Z,99445.53
2023-04-08T19:46:42.483Z,99451.78
2023-04-08T19:49:09.274Z,99450.16
2023-04-08T19:51:36.127Z,99452.63
2023-04-08T19:54:03.123Z,99457.50
2023-04-08T19:56:33.881Z,99446.66
2023-04-08T19:59:03.846Z,99454.53
2023-04-08T20:01:30.854Z,99463.78
2023-04-08T20:03:57.835Z,99450.78
2023-04-08T20:06:24.759Z,99457.28
2023-04-08T20:08:53.029Z,99457.28
2023-04-08T20:11:20.856Z,99450.53
2023-04-08T20:13:51.141Z,99454.63
2023-04-08T20:16:20.475Z,99449.47
2023-04-08T20:18:47.636Z,99453.22
2023-04-08T20:21:14.614Z,99453.50
2023-04-08T20:23:44.414Z,99445.59
2023-04-08T20:26:12.883Z,99445.66
2023-04-08T20:28:40.765Z,99451.63
2023-04-08T20:31:07.808Z,99444.31
2023-04-08T20:33:43.354Z,99443.47
2023-04-08T20:36:14.731Z,99453.00
2023-04-08T20:38:42.428Z,99439.66
2023-04-08T20:41:09.849Z,99447.63
2023-04-08T20:43:36.777Z,99447.13
2023-04-08T20:46:03.587Z,99445.78
2023-04-08T20:48:30.450Z,99448.50
2023-04-08T20:50:57.508Z,99447.94
2023-04-08T20:53:24.621Z,99446.31
2023-04-08T20:55:52.229Z,99449.03
2023-04-08T20:58:19.098Z,99444.16
2023-04-08T21:00:47.586Z,99442.06
2023-04-08T21:03:17.228Z,99444.28
2023-04-08T21:05:44.281Z,99438.13
2023-04-08T21:08:11.058Z,99441.13
2023-04-08T21:10:37.978Z,99448.47
2023-04-08T21:13:05.256Z,99437.66
2023-04-08T21:15:32.219Z,99445.97
2023-04-08T21:17:59.097Z,99450.31
2023-04-08T21:20:26.227Z,99450.31
2023-04-08T21:22:53.871Z,99441.09
2023-04-08T21:25:21.009Z,99438.94
2023-04-08T21:27:47.993Z,99446.03
2023-04-08T21:30:16.759Z,99449.31
2023-04-08T21:32:44.127Z,99443.88
2023-04-08T21:35:11.234Z,99442.50
2023-04-08T21:37:38.054Z,99446.84
2023-04-08T21:40:05.599Z,99448.25
2023-04-08T21:42:32.875Z,99444.72
2023-04-08T21:45:00.037Z,99446.41
2023-04-08T21:47:26.985Z,99439.94
2023-04-08T21:49:54.144Z,99448.09
2023-04-08T21:52:21.151Z,99447.84
2023-04-08T21:54:52.693Z,99445.66
2023-04-08T21:57:19.506Z,99440.25
2023-04-08T21:59:46.454Z,99439.16
2023-04-08T22:02:13.705Z,99446.75
2023-04-08T22:04:40.668Z,99446.75
2023-04-08T22:07:07.840Z,99448.09
2023-04-08T22:09:35.034Z,99452.69
2023-04-08T22:12:02.141Z,99446.19
2023-04-08T22:14:29.657Z,99451.34
2023-04-08T22:16:56.653Z,99443.50
2023-04-08T22:19:24.003Z,99448.09
2023-04-08T22:21:53.666Z,99450.56
2023-04-08T22:24:21.231Z,99445.94
2023-04-08T22:26:48.122Z,99444.88
2023-04-08T22:29:15.644Z,99439.50
2023-04-08T22:31:42.448Z,99438.72
2023-04-08T22:34:09.237Z,99434.34
2023-04-08T22:36:36.023Z,99441.94
2023-04-08T22:39:03.755Z,99447.88
2023-04-08T22:41:30.577Z,99440.84
2023-04-08T22:43:57.362Z,99441.09
2023-04-08T22:46:24.179Z,99448.16
2023-04-08T22:48:51.296Z,99448.97
2023-04-08T22:51:18.433Z,99440.88
2023-04-08T22:53:45.422Z,99443.03
2023-04-08T22:56:12.510Z,99439.00
2023-04-08T22:58:39.444Z,99441.69
2023-04-08T23:01:17.107Z,99435.19
2023-04-08T23:03:45.458Z,99431.66
2023-04-08T23:06:12.307Z,99427.09
2023-04-08T23:08:39.275Z,99430.59
2023-04-08T23:11:06.925Z,99422.47
2023-04-08T23:13:34.570Z,99420.59
2023-04-08T23:16:01.412Z,99422.25
2023-04-08T23:18:28.395Z,99421.69
2023-04-08T23:20:57.013Z,99432.53
2023-04-08T23:23:25.278Z,99433.34
2023-04-08T23:25:55.554Z,99433.34
2023-04-08T23:28:22.886Z,99432.25
2023-04-08T23:30:49.711Z,99431.72
2023-04-08T23:33:16.733Z,99428.22
2023-04-08T23:35:44.141Z,99427.38
2023-04-08T23:38:11.007Z,99436.59
2023-04-08T23:40:37.977Z,99436.03
2023-04-08T23:43:05.053Z,99433.59
2023-04-08T23:45:32.984Z,99441.72
2023-04-08T23:47:59.770Z,99435.50
2023-04-08T23:50:26.655Z,99435.50
2023-04-08T23:52:53.504Z,99434.94
2023-04-08T23:55:20.654Z,99436.00
2023-04-08T23:57:49.201Z,99437.91
